TimeAKDT,TemperatureF,Dew PointF,Humidity,Sea Level PressureIn,VisibilityMPH,Wind Direction,Wind SpeedMPH,Gust SpeedMPH,PrecipitationIn,Events,Conditions,WindDirDegrees,DateUTC
12:53 AM,5.0,1.0,84,30.67,10.0,Calm,Calm,-,N/A,,Clear,0,2012-10-25 08:53:00
1:53 AM,1.9,-2.0,83,30.67,10.0,Calm,Calm,-,N/A,,Clear,0,2012-10-25 09:53:00
2:53 AM,15.1,7.0,70,30.65,10.0,ENE,6.9,-,N/A,,Clear,70,2012-10-25 10:53:00
3:53 AM,5.0,1.9,87,30.67,10.0,NNW,3.5,-,N/A,,Clear,330,2012-10-25 11:53:00
4:53 AM,3.0,-2.9,76,30.66,10.0,NW,3.5,-,N/A,,Clear,310,2012-10-25 12:53:00
5:53 AM,1.9,-4.0,76,30.67,10.0,Calm,Calm,-,N/A,,Clear,0,2012-10-25 13:53:00
6:53 AM,10.0,3.9,76,30.63,10.0,ENE,6.9,-,N/A,,Clear,60,2012-10-25 14:53:00
7:53 AM,6.1,1.0,80,30.64,10.0,NNE,3.5,-,N/A,,Clear,30,2012-10-25 15:53:00
8:53 AM,1.9,-2.9,80,30.63,10.0,Calm,Calm,-,N/A,,Clear,0,2012-10-25 16:53:00
9:53 AM,3.9,-0.9,80,30.64,10.0,Calm,Calm,-,N/A,,Clear,0,2012-10-25 17:53:00
10:53 AM,16.0,6.1,65,30.63,10.0,East,10.4,-,N/A,,Clear,80,2012-10-25 18:53:00
11:53 AM,12.9,6.1,74,30.64,6.0,Calm,Calm,-,N/A,,Haze,0,2012-10-25 19:53:00
12:53 PM,19.0,7.0,59,30.62,10.0,East,11.5,-,N/A,,Clear,90,2012-10-25 20:53:00
1:53 PM,21.0,8.1,57,30.62,10.0,East,9.2,-,N/A,,Clear,80,2012-10-25 21:53:00
2:53 PM,21.0,8.1,57,30.60,10.0,East,9.2,-,N/A,,Clear,90,2012-10-25 22:53:00
3:53 PM,21.0,9.0,60,30.60,10.0,East,3.5,-,N/A,,Clear,100,2012-10-25 23:53:00
4:53 PM,17.1,10.0,74,30.59,10.0,NW,4.6,-,N/A,,Clear,320,2012-10-26 00:53:00
5:53 PM,17.1,8.1,68,30.59,10.0,WNW,3.5,-,N/A,,Clear,300,2012-10-26 01:53:00
6:53 PM,14.0,8.1,77,30.58,10.0,Calm,Calm,-,N/A,,Clear,0,2012-10-26 02:53:00
7:53 PM,10.9,7.0,84,30.59,10.0,Calm,Calm,-,N/A,,Clear,0,2012-10-26 03:53:00
8:53 PM,9.0,5.0,84,30.58,10.0,Calm,Calm,-,N/A,,Clear,0,2012-10-26 04:53:00
9:53 PM,10.0,5.0,80,30.57,10.0,Calm,Calm,-,N/A,,Clear,0,2012-10-26 05:53:00
10:53 PM,8.1,3.9,83,30.56,10.0,Calm,Calm,-,N/A,,Clear,0,2012-10-26 06:53:00
11:53 PM,8.1,3.9,83,30.57,10.0,Calm,Calm,-,N/A,,Clear,0,2012-10-26 07:53:00